Time;durP1;ratioP1;P1;durP2;ratioP2;P2;SDS_P1;SDS_P2;PMS_P1;PMS_P2;Temp;Humidity;BMP_temperature;BMP_pressure;BME280_temperature;BME280_humidity;BME280_pressure;Samples;Min_cycle;Max_cycle;Signal;HPM_P1;HPM_P2
2022/11/11 00:00:34;;;;;;;18.90;10.02;;;;;;;7.61;100.00;102855.66;5040956;28;20530;-79
2022/11/11 00:02:59;;;;;;;15.52;9.57;;;;;;;7.68;100.00;102860.16;5041680;28;20251;-79
2022/11/11 00:05:25;;;;;;;14.65;9.27;;;;;;;7.73;100.00;102855.03;5042371;28;20369;-79
2022/11/11 00:07:51;;;;;;;16.92;9.65;;;;;;;7.86;100.00;102858.75;5048275;28;20053;-79
2022/11/11 00:10:16;;;;;;;16.63;9.52;;;;;;;7.94;100.00;102872.75;5052351;28;20044;-79
2022/11/11 00:12:42;;;;;;;16.10;9.80;;;;;;;7.97;100.00;102867.63;5053218;28;20476;-79
2022/11/11 00:15:07;;;;;;;17.80;10.35;;;;;;;8.05;100.00;102879.06;5032447;28;20077;-79
2022/11/11 00:26:05;;;;;;;23.02;11.00;;;;;;;8.16;100.00;102861.94;5053066;28;20107;-79
2022/11/11 00:28:30;;;;;;;19.23;11.77;;;;;;;8.18;100.00;102857.66;5033788;28;20030;-79
2022/11/11 00:31:07;;;;;;;17.92;11.27;;;;;;;8.24;100.00;102866.41;5036079;28;20380;-79
2022/11/11 00:33:33;;;;;;;22.25;12.25;;;;;;;8.19;100.00;102853.34;5051779;28;20480;-78
2022/11/11 00:35:59;;;;;;;21.33;12.70;;;;;;;8.27;100.00;102871.66;5032423;28;20105;-79
2022/11/11 00:41:09;;;;;;;18.92;12.73;;;;;;;8.28;100.00;102861.31;5032995;28;20046;-79
2022/11/11 00:43:34;;;;;;;17.80;12.70;;;;;;;8.34;100.00;102873.53;5032362;28;20029;-79
2022/11/11 00:51:28;;;;;;;;;;;;;;;8.39;100.00;102882.31;5033193;28;20551;-79
2022/11/11 00:53:53;;;;;;;19.58;12.40;;;;;;;8.32;100.00;102875.22;5032770;28;19913;-79
2022/11/11 00:56:19;;;;;;;28.73;12.65;;;;;;;8.39;100.00;102879.72;5031815;28;20029;-79
2022/11/11 00:58:44;;;;;;;22.25;12.82;;;;;;;8.40;100.00;102886.66;5048301;28;20491;-78
2022/11/11 01:01:10;;;;;;;20.48;13.20;;;;;;;8.43;100.00;102884.13;5052203;28;20074;-79
2022/11/11 01:03:35;;;;;;;24.52;12.55;;;;;;;8.43;100.00;102891.91;5051792;28;20052;-78
2022/11/11 01:06:04;;;;;;;19.40;12.70;;;;;;;8.44;100.00;102897.16;5051327;28;20040;-79
2022/11/11 01:08:30;;;;;;;19.83;12.82;;;;;;;8.38;100.00;102890.97;5045022;28;20156;-79
2022/11/11 01:10:55;;;;;;;19.13;13.73;;;;;;;8.41;100.00;102898.81;5031293;28;20108;-79
2022/11/11 01:13:23;;;;;;;28.67;13.15;;;;;;;8.35;100.00;102886.56;5032326;28;20021;-79
2022/11/11 01:15:51;;;;;;;21.10;13.52;;;;;;;8.47;100.00;102898.03;5031369;28;20036;-79
2022/11/11 01:18:20;;;;;;;19.45;13.07;;;;;;;8.47;100.00;102906.75;5048297;28;20029;-79
2022/11/11 01:20:45;;;;;;;24.08;14.32;;;;;;;8.49;100.00;102909.34;5042453;28;20107;-79
2022/11/11 01:23:12;;;;;;;21.27;13.52;;;;;;;8.50;100.00;102905.91;5032101;28;20073;-79
2022/11/11 01:25:40;;;;;;;21.33;13.38;;;;;;;8.49;100.00;102902.41;5048099;28;20078;-79
2022/11/11 01:28:07;;;;;;;22.13;13.70;;;;;;;8.51;100.00;102892.06;5047521;28;20041;-79
2022/11/11 01:30:33;;;;;;;24.35;14.75;;;;;;;8.47;100.00;102895.44;5034648;28;20075;-79
2022/11/11 01:32:59;;;;;;;20.25;13.38;;;;;;;8.52;100.00;102909.41;5051016;28;20028;-79
2022/11/11 01:35:25;;;;;;;20.58;13.95;;;;;;;8.50;100.00;102899.00;5051139;28;20024;-79
2022/11/11 01:37:50;;;;;;;22.10;14.48;;;;;;;8.55;100.00;102899.06;5042072;28;20024;-79
2022/11/11 01:40:16;;;;;;;23.08;14.40;;;;;;;8.56;100.00;102903.41;5037312;28;20040;-79
2022/11/11 01:42:53;;;;;;;21.73;14.13;;;;;;;8.56;100.00;102900.81;5031317;28;20104;-79
2022/11/11 01:45:48;;;;;;;20.92;14.10;;;;;;;8.57;100.00;102893.06;5030384;28;20052;-79
2022/11/11 01:51:16;;;;;;;22.45;13.63;;;;;;;8.54;100.00;102882.59;5051186;28;20087;-78
2022/11/11 01:53:42;;;;;;;24.15;14.65;;;;;;;8.55;100.00;102875.66;5051133;28;20369;-79
2022/11/11 01:56:09;;;;;;;25.48;13.52;;;;;;;8.56;100.00;102885.22;5047889;28;20448;-79
2022/11/11 01:58:34;;;;;;;25.08;13.95;;;;;;;8.57;100.00;102887.84;5049091;28;20036;-79
2022/11/11 02:01:01;;;;;;;26.92;15.95;;;;;;;8.53;100.00;102880.81;5050195;28;20151;-80
2022/11/11 02:03:30;;;;;;;25.63;14.55;;;;;;;8.54;100.00;102881.72;5044142;28;20428;-79
2022/11/11 02:05:56;;;;;;;26.25;15.20;;;;;;;8.48;100.00;102874.69;5031094;28;20112;-79
2022/11/11 02:08:32;;;;;;;24.13;14.68;;;;;;;8.53;100.00;102888.63;5044365;28;20307;-79
2022/11/11 02:11:02;;;;;;;23.58;13.73;;;;;;;8.56;100.00;102888.69;5049388;28;20029;-79
2022/11/11 02:16:12;;;;;;;20.90;13.52;;;;;;;8.52;100.00;102870.41;5043809;28;20072;-79
2022/11/11 02:18:37;;;;;;;23.63;14.70;;;;;;;8.51;100.00;102882.53;5050758;28;20064;-79
2022/11/11 02:21:03;;;;;;;24.15;13.88;;;;;;;8.50;100.00;102865.19;5050381;28;20028;-79
2022/11/11 02:23:54;;;;;;;29.15;14.77;;;;;;;8.53;100.00;102862.63;5048520;28;20029;-79
2022/11/11 02:26:21;;;;;;;25.20;14.73;;;;;;;8.54;100.00;102872.19;5049628;28;20061;-79
2022/11/11 02:28:47;;;;;;;24.20;14.75;;;;;;;8.48;100.00;102853.88;5049076;28;20074;-79
2022/11/11 02:31:13;;;;;;;27.35;14.25;;;;;;;8.54;100.00;102859.19;5037169;28;20491;-79
2022/11/11 02:33:38;;;;;;;26.88;14.48;;;;;;;8.54;100.00;102859.19;5050908;28;20029;-79
2022/11/11 02:36:04;;;;;;;21.83;13.32;;;;;;;8.44;100.00;102844.31;5031238;28;20025;-79
2022/11/11 02:38:30;;;;;;;21.25;13.18;;;;;;;8.54;100.00;102855.72;5047346;28;20029;-79
2022/11/11 02:41:55;;;;;;;21.55;13.15;;;;;;;8.54;100.00;102855.72;5046914;28;20415;-79
2022/11/11 02:43:50;;;;;;;;;;;;;;;8.51;100.00;102856.53;5033551;28;20396;-79
2022/11/11 02:46:15;;;;;;;20.50;12.80;;;;;;;8.50;100.00;102859.09;5035699;28;19920;-79
2022/11/11 02:48:40;;;;;;;26.27;13.15;;;;;;;8.49;100.00;102858.22;5042546;28;20388;-79
2022/11/11 02:51:07;;;;;;;22.65;13.25;;;;;;;8.43;100.00;102859.00;5050294;28;20025;-79
2022/11/11 02:53:32;;;;;;;19.88;12.65;;;;;;;8.39;100.00;102845.94;5050570;28;20483;-79
2022/11/11 02:55:58;;;;;;;22.33;12.85;;;;;;;8.41;100.00;102850.31;5049327;28;20029;-79
2022/11/11 02:58:23;;;;;;;19.20;12.82;;;;;;;8.42;100.00;102854.66;5044027;28;20045;-79
2022/11/11 03:00:48;;;;;;;21.52;12.02;;;;;;;8.37;100.00;102842.38;5033518;28;20033;-79
2022/11/11 03:03:14;;;;;;;18.60;12.40;;;;;;;8.38;100.00;102844.19;5031866;28;20044;-79
2022/11/11 03:05:39;;;;;;;20.75;13.30;;;;;;;8.37;100.00;102837.19;5030511;28;20025;-79
2022/11/11 03:08:05;;;;;;;20.15;13.10;;;;;;;8.38;100.00;102839.00;5044199;28;20032;-79
2022/11/11 03:10:30;;;;;;;21.63;12.05;;;;;;;8.34;100.00;102835.44;5042252;28;20026;-79
2022/11/11 03:12:55;;;;;;;20.20;12.23;;;;;;;8.36;100.00;102851.91;5031412;28;20022;-79
2022/11/11 03:15:21;;;;;;;21.50;12.23;;;;;;;8.31;100.00;102835.38;5044198;28;20033;-79
2022/11/11 03:17:46;;;;;;;20.00;11.90;;;;;;;8.28;100.00;102829.25;5037141;28;20403;-79
2022/11/11 03:23:03;;;;;;;22.20;12.07;;;;;;;8.25;100.00;102831.78;5037752;28;20452;-79
2022/11/11 03:25:38;;;;;;;18.85;12.50;;;;;;;8.29;100.00;102850.06;5030426;28;20108;-79
2022/11/11 03:28:05;;;;;;;22.65;12.55;;;;;;;8.28;100.00;102858.72;5040127;28;20025;-79
2022/11/11 03:30:31;;;;;;;20.33;12.30;;;;;;;8.21;100.00;102849.94;5049329;28;20021;-79
2022/11/11 03:32:56;;;;;;;21.80;11.75;;;;;;;8.27;100.00;102861.25;5048152;28;20047;-79
2022/11/11 03:35:21;;;;;;;22.73;12.50;;;;;;;8.19;100.00;102842.94;5048991;28;20090;-79
2022/11/11 03:40:30;;;;;;;20.00;11.20;;;;;;;8.25;100.00;102853.44;5045451;28;20510;-79
2022/11/11 03:42:55;;;;;;;18.52;11.65;;;;;;;8.14;100.00;102832.47;5048952;28;20107;-79
2022/11/11 03:45:21;;;;;;;21.20;12.48;;;;;;;8.28;100.00;102853.50;5039861;28;20033;-79
2022/11/11 03:47:46;;;;;;;19.33;11.40;;;;;;;8.18;100.00;102836.00;5050450;28;20040;-79
2022/11/11 03:50:11;;;;;;;20.85;12.10;;;;;;;8.28;100.00;102852.63;5052417;28;20033;-79
2022/11/11 03:52:42;;;;;;;21.65;12.98;;;;;;;8.28;100.00;102852.63;5048954;28;20118;-79
2022/11/11 03:55:08;;;;;;;19.35;12.10;;;;;;;8.26;100.00;102850.00;5043110;28;20259;-79
2022/11/11 03:57:33;;;;;;;25.80;12.15;;;;;;;8.28;100.00;102860.44;5050933;28;20444;-79
2022/11/11 03:59:59;;;;;;;20.38;12.27;;;;;;;8.15;100.00;102835.94;5038533;28;20123;-79
2022/11/11 04:10:36;;;;;;;;;;;;;;;8.24;100.00;102861.19;5045424;28;20495;-79
2022/11/11 04:16:04;;;;;;;18.73;11.27;;;;;;;8.18;100.00;102865.47;5035754;28;20036;-79
2022/11/11 04:23:58;;;;;;;;;;;;;;;8.20;100.00;102865.47;5050639;28;20095;-79
2022/11/11 04:26:23;;;;;;;22.65;11.30;;;;;;;8.14;100.00;102866.25;5035350;28;20008;-79
2022/11/11 04:31:32;;;;;;;20.73;11.60;;;;;;;8.09;100.00;102865.28;5046631;28;20044;-79
2022/11/11 04:33:58;;;;;;;19.02;11.73;;;;;;;8.09;100.00;102874.78;5036777;28;20029;-79
2022/11/11 04:36:23;;;;;;;21.35;12.30;;;;;;;8.09;100.00;102867.00;5044533;28;20086;-79
2022/11/11 04:41:32;;;;;;;;;;;;;;;8.10;100.00;102863.53;5044706;28;20151;-79
2022/11/11 04:46:41;;;;;;;21.25;12.15;;;;;;;8.01;100.00;102858.16;5052821;28;20859;-79
2022/11/11 04:49:06;;;;;;;17.65;11.80;;;;;;;8.07;100.00;102860.88;5037239;28;20041;-79
2022/11/11 04:52:25;;;;;;;20.83;12.05;;;;;;;8.05;100.00;102866.06;5034535;28;20025;-79
2022/11/11 04:54:16;;;;;;;20.83;12.40;;;;;;;8.02;100.00;102863.41;5051188;28;20122;-79
2022/11/11 04:56:49;;;;;;;17.50;11.63;;;;;;;8.01;100.00;102860.78;5051434;28;20108;-79
2022/11/11 04:59:15;;;;;;;20.23;11.35;;;;;;;8.02;100.00;102863.41;5053585;28;20033;-79
2022/11/11 05:04:24;;;;;;;19.63;11.40;;;;;;;8.01;100.00;102868.56;5040555;28;20041;-79
2022/11/11 05:09:33;;;;;;;;;;;;;;;7.99;100.00;102863.34;5050556;28;20044;-79
2022/11/11 05:11:58;;;;;;;16.92;10.55;;;;;;;7.93;100.00;102861.50;5042935;28;20280;-79
2022/11/11 05:22:39;;;;;;;18.85;10.23;;;;;;;7.84;100.00;102861.31;5034044;28;19919;-79
2022/11/11 05:27:49;;;;;;;16.08;10.50;;;;;;;7.69;100.00;102856.69;5045832;28;20044;-79
2022/11/11 05:30:16;;;;;;;18.13;10.52;;;;;;;7.69;100.00;102867.09;5038331;28;20029;-79
2022/11/11 05:32:42;;;;;;;17.92;11.25;;;;;;;7.59;100.00;102856.50;5054336;28;20029;-79
2022/11/11 05:35:08;;;;;;;19.85;11.45;;;;;;;7.70;100.00;102881.81;5054176;28;20036;-79
2022/11/11 05:37:34;;;;;;;16.75;11.25;;;;;;;7.64;100.00;102873.88;5045336;28;20029;-79
2022/11/11 05:39:59;;;;;;;18.27;11.75;;;;;;;7.62;100.00;102879.88;5053782;28;20045;-79
2022/11/11 05:42:24;;;;;;;21.40;11.82;;;;;;;7.60;100.00;102879.88;5036591;28;20400;-79
2022/11/11 05:44:50;;;;;;;21.30;12.23;;;;;;;7.59;100.00;102890.22;5041899;28;20056;-79
2022/11/11 05:47:15;;;;;;;19.50;11.65;;;;;;;7.44;100.00;102859.63;5050077;28;20036;-79
2022/11/11 05:49:40;;;;;;;20.67;11.95;;;;;;;7.47;100.00;102865.75;5050539;28;20060;-79
2022/11/11 05:52:06;;;;;;;17.92;11.82;;;;;;;7.45;100.00;102871.75;5040006;28;20018;-79
2022/11/11 05:54:32;;;;;;;20.90;11.68;;;;;;;7.36;100.00;102856.00;5038129;28;20017;-79
2022/11/11 05:56:57;;;;;;;18.70;11.52;;;;;;;7.32;100.00;102859.34;5040897;28;20037;-79
2022/11/11 05:59:22;;;;;;;17.67;11.32;;;;;;;7.25;100.00;102866.97;5043848;28;20060;-79
2022/11/11 06:01:48;;;;;;;19.25;12.30;;;;;;;7.22;100.00;102873.81;5032954;28;20049;-79
2022/11/11 06:04:13;;;;;;;17.35;12.00;;;;;;;7.18;100.00;102878.06;5047386;28;20461;-79
2022/11/11 06:06:38;;;;;;;19.58;11.95;;;;;;;7.09;100.00;102877.84;5039403;28;20036;-79
2022/11/11 06:09:04;;;;;;;18.23;12.10;;;;;;;7.11;100.00;102878.78;5051324;28;20104;-79
2022/11/11 06:11:30;;;;;;;20.40;12.68;;;;;;;7.04;100.00;102882.06;5034402;28;20021;-79
2022/11/11 06:13:55;;;;;;;20.40;12.95;;;;;;;7.00;100.00;102882.84;5032688;28;20064;-79
2022/11/11 06:16:21;;;;;;;26.00;12.98;;;;;;;7.01;100.00;102884.59;5042021;28;20029;-79
2022/11/11 06:18:47;;;;;;;23.17;13.57;;;;;;;6.95;100.00;102885.31;5045619;28;20370;-79
2022/11/11 06:21:12;;;;;;;21.42;12.68;;;;;;;6.88;100.00;102885.13;5043147;28;20098;-79
2022/11/11 06:23:37;;;;;;;22.48;12.82;;;;;;;6.79;100.00;102893.53;5052820;28;20116;-79
2022/11/11 06:26:12;;;;;;;17.17;11.63;;;;;;;6.74;100.00;102900.34;5049303;28;20637;-79
2022/11/11 06:28:58;;;;;;;25.23;13.52;;;;;;;6.60;100.00;102886.16;5041642;28;20045;-79
2022/11/11 06:31:25;;;;;;;20.92;13.75;;;;;;;6.70;100.00;102904.59;5042316;28;20488;-79
2022/11/11 06:33:51;;;;;;;19.63;13.23;;;;;;;6.69;100.00;102908.00;5038266;28;20025;-79
2022/11/11 06:36:18;;;;;;;21.35;12.13;;;;;;;6.67;100.00;102901.00;5049759;28;20091;-79
2022/11/11 06:38:44;;;;;;;21.17;13.48;;;;;;;6.75;100.00;102920.25;5038258;28;20033;-79
2022/11/11 06:41:14;;;;;;;21.13;13.25;;;;;;;6.65;100.00;102913.94;5033469;28;20048;-79
2022/11/11 06:43:40;;;;;;;19.58;12.15;;;;;;;6.68;100.00;102921.81;5032980;28;20380;-79
2022/11/11 06:46:05;;;;;;;21.27;12.25;;;;;;;6.61;100.00;102917.31;5033305;28;20049;-79
2022/11/11 06:48:31;;;;;;;20.38;11.60;;;;;;;6.39;100.00;102897.72;5051545;28;20460;-78
2022/11/11 06:51:02;;;;;;;23.55;12.50;;;;;;;6.47;100.00;102922.09;5037293;28;20033;-79
2022/11/11 06:53:28;;;;;;;17.80;12.13;;;;;;;6.41;100.00;102926.22;5042483;28;20038;-79
2022/11/11 06:55:53;;;;;;;20.23;12.27;;;;;;;6.30;100.00;102929.41;5035752;28;20386;-79
2022/11/11 06:58:19;;;;;;;21.63;12.90;;;;;;;6.28;100.00;102927.66;5050515;28;20039;-79
2022/11/11 07:00:46;;;;;;;25.20;13.27;;;;;;;6.18;100.00;102916.16;5052270;28;20024;-79
2022/11/11 07:03:17;;;;;;;21.08;12.82;;;;;;;6.18;100.00;102910.97;5036708;28;20451;-79
2022/11/11 07:05:43;;;;;;;21.92;11.82;;;;;;;6.22;100.00;102922.28;5041355;28;20030;-79
2022/11/11 07:08:10;;;;;;;20.80;12.63;;;;;;;6.18;100.00;102923.91;5039375;28;20041;-79
2022/11/11 07:10:38;;;;;;;20.00;11.38;;;;;;;6.19;100.00;102924.78;5041016;28;20025;-79
2022/11/11 07:13:05;;;;;;;22.58;12.40;;;;;;;6.19;100.00;102927.38;5035011;28;20025;-79
2022/11/11 07:15:31;;;;;;;23.88;13.07;;;;;;;6.21;100.00;102933.47;5040461;28;20067;-79
2022/11/11 07:17:56;;;;;;;22.02;12.43;;;;;;;6.16;100.00;102925.56;5057040;28;20029;-79
2022/11/11 07:20:21;;;;;;;21.20;12.73;;;;;;;6.09;100.00;102913.31;5055305;28;20075;-79
2022/11/11 07:22:47;;;;;;;22.75;12.38;;;;;;;6.21;100.00;102928.28;5046396;28;20033;-79
2022/11/11 07:25:13;;;;;;;22.60;11.63;;;;;;;6.22;100.00;102938.72;5051736;28;20074;-79
2022/11/11 07:27:39;;;;;;;20.58;11.75;;;;;;;6.24;100.00;102937.00;5055922;28;20106;-79
2022/11/11 07:30:05;;;;;;;21.52;12.27;;;;;;;6.24;100.00;102947.38;5052992;28;20035;-79
2022/11/11 07:32:30;;;;;;;21.98;12.27;;;;;;;6.29;100.00;102955.28;5041453;28;20025;-79
2022/11/11 07:34:56;;;;;;;20.77;12.32;;;;;;;6.25;100.00;102940.50;5054594;28;20028;-79
2022/11/11 07:37:21;;;;;;;23.67;12.30;;;;;;;6.32;100.00;102947.59;5051972;28;20017;-79
2022/11/11 07:39:46;;;;;;;22.25;13.15;;;;;;;6.26;100.00;102929.31;5052540;28;20029;-79
2022/11/11 07:42:12;;;;;;;21.77;12.48;;;;;;;6.32;100.00;102940.72;5053196;28;20503;-79
2022/11/11 07:44:37;;;;;;;21.60;12.77;;;;;;;6.39;100.00;102944.34;5055020;28;20111;-79
2022/11/11 07:47:02;;;;;;;20.77;13.10;;;;;;;6.45;100.00;102956.59;5042873;28;20034;-79
2022/11/11 07:49:27;;;;;;;21.80;13.15;;;;;;;6.44;100.00;102963.50;5051858;28;20472;-79
2022/11/11 07:51:53;;;;;;;22.10;12.57;;;;;;;6.45;100.00;102967.84;5044108;28;20485;-79
2022/11/11 07:54:18;;;;;;;19.90;13.23;;;;;;;6.47;100.00;102967.88;5049690;28;20468;-79
2022/11/11 07:56:43;;;;;;;26.60;14.15;;;;;;;6.48;100.00;102967.06;5045583;28;20041;-77
2022/11/11 07:59:09;;;;;;;22.83;14.00;;;;;;;6.48;100.00;102975.69;5037110;28;20040;-79
2022/11/11 08:01:34;;;;;;;23.88;13.07;;;;;;;6.53;100.00;102987.03;5041737;28;20068;-79
2022/11/11 08:03:59;;;;;;;22.67;12.65;;;;;;;6.54;100.00;102986.22;5055491;28;20030;-79
2022/11/11 08:06:24;;;;;;;22.70;13.18;;;;;;;6.53;100.00;102983.59;5052292;28;20077;-79
2022/11/11 08:08:50;;;;;;;23.13;13.20;;;;;;;6.59;100.00;102988.06;5043950;28;20040;-79
2022/11/11 08:13:38;;;;;;;22.30;13.20;;;;;;;6.58;100.00;102982.00;5037828;28;20025;-80
2022/11/11 08:14:02;;;;;;;22.00;12.23;;;;;;;6.50;100.00;102974.00;5043267;28;20029;-80
2022/11/11 08:16:27;;;;;;;21.95;12.88;;;;;;;6.67;100.00;103004.69;5037694;28;20044;-79
2022/11/11 08:18:53;;;;;;;23.02;12.27;;;;;;;6.66;100.00;102996.03;5052055;28;20499;-79
2022/11/11 08:21:18;;;;;;;21.23;12.40;;;;;;;6.71;100.00;103009.16;5042073;28;20105;-80
2022/11/11 08:23:43;;;;;;;22.27;12.50;;;;;;;6.74;100.00;103004.91;5049123;28;20028;-79
2022/11/11 08:26:09;;;;;;;17.77;11.88;;;;;;;6.77;100.00;103002.41;5043974;28;20078;-79
2022/11/11 08:28:35;;;;;;;19.20;11.90;;;;;;;6.77;100.00;103002.41;5047068;28;20476;-79
2022/11/11 08:31:01;;;;;;;18.13;11.77;;;;;;;6.79;100.00;103005.03;5040567;28;20143;-79
2022/11/11 08:33:27;;;;;;;19.25;11.15;;;;;;;6.86;100.00;103019.03;5042005;28;20021;-79
2022/11/11 08:35:54;;;;;;;21.77;11.35;;;;;;;6.88;100.00;103019.97;5043021;28;20029;-79
2022/11/11 08:38:20;;;;;;;18.10;10.95;;;;;;;6.85;100.00;103007.78;5046457;28;20094;-78
2022/11/11 08:40:46;;;;;;;18.83;12.02;;;;;;;6.95;100.00;103022.75;5042864;28;20025;-77
2022/11/11 08:43:11;;;;;;;19.23;10.77;;;;;;;6.97;100.00;103033.19;5045199;28;20033;-79
2022/11/11 08:45:37;;;;;;;18.90;11.45;;;;;;;6.98;100.00;103019.38;5048763;28;20454;-78
2022/11/11 08:48:03;;;;;;;17.23;11.07;;;;;;;7.07;100.00;103027.38;5035695;28;20457;-78
2022/11/11 08:50:28;;;;;;;17.75;10.23;;;;;;;7.11;100.00;103026.63;5036879;28;20036;-79
2022/11/11 08:52:53;;;;;;;18.85;11.95;;;;;;;7.14;100.00;103028.41;5049189;28;20468;-78
2022/11/11 08:55:19;;;;;;;16.88;10.70;;;;;;;7.16;100.00;103026.72;5039138;28;20036;-79
2022/11/11 08:57:45;;;;;;;18.83;10.57;;;;;;;7.21;100.00;103032.91;5043425;28;20388;-79
2022/11/11 09:00:11;;;;;;;16.52;10.10;;;;;;;7.23;100.00;103032.13;5034548;28;20174;-79
2022/11/11 09:02:37;;;;;;;18.40;10.30;;;;;;;7.22;100.00;103026.88;5050353;28;20069;-79
2022/11/11 09:05:04;;;;;;;14.90;9.90;;;;;;;7.28;100.00;103024.44;5053404;28;20155;-79
2022/11/11 09:07:29;;;;;;;16.20;9.45;;;;;;;7.33;100.00;103027.19;5050632;28;20017;-83
2022/11/11 09:09:55;;;;;;;14.65;9.35;;;;;;;7.33;100.00;103019.38;5048261;28;20029;-80
2022/11/11 09:12:20;;;;;;;17.42;9.70;;;;;;;7.34;100.00;103019.41;5045546;28;20017;-80
2022/11/11 09:14:47;;;;;;;15.65;8.85;;;;;;;7.38;100.00;103028.16;5049100;28;20029;-76
2022/11/11 09:17:12;;;;;;;15.68;9.00;;;;;;;7.41;100.00;103029.09;5049206;28;20024;-74
2022/11/11 09:19:37;;;;;;;14.35;9.02;;;;;;;7.42;100.00;103038.66;5066908;28;20111;-87
2022/11/11 09:22:02;;;;;;;14.18;8.68;;;;;;;7.41;100.00;103026.50;5063423;28;20025;-78
2022/11/11 09:24:28;;;;;;;13.55;8.43;;;;;;;7.48;100.00;103037.91;5054985;28;20100;-79
2022/11/11 09:26:53;;;;;;;14.80;8.70;;;;;;;7.50;100.00;103041.44;5062125;28;20398;-81
2022/11/11 09:29:19;;;;;;;14.85;8.52;;;;;;;7.45;100.00;103028.31;5065773;28;20503;-76
2022/11/11 09:31:45;;;;;;;13.30;7.97;;;;;;;7.56;100.00;103025.13;5057989;28;20025;-76
2022/11/11 09:34:10;;;;;;;12.77;7.80;;;;;;;7.61;100.00;103037.38;5052320;28;20035;-77
2022/11/11 09:36:35;;;;;;;11.10;7.60;;;;;;;7.66;100.00;103046.16;5054259;28;20108;-76
2022/11/11 09:39:01;;;;;;;13.30;8.30;;;;;;;7.70;100.00;103039.31;5060201;28;20423;-77
2022/11/11 09:41:47;;;;;;;11.82;7.95;;;;;;;7.77;100.00;103040.34;5048326;28;20529;-78
2022/11/11 09:44:40;;;;;;;14.13;7.65;;;;;;;7.77;100.00;103027.34;5057454;28;20366;-80
2022/11/11 09:47:24;;;;;;;13.30;8.05;;;;;;;7.90;100.00;103044.97;5044136;28;20032;-79
2022/11/11 09:50:00;;;;;;;10.85;7.45;;;;;;;7.90;100.00;103042.38;5052983;28;20025;-77
2022/11/11 09:52:56;;;;;;;12.13;7.75;;;;;;;8.01;100.00;103053.88;5071777;28;20487;-83
2022/11/11 09:55:23;;;;;;;11.57;7.90;;;;;;;7.97;100.00;103029.53;5050665;28;20025;-77
2022/11/11 09:57:57;;;;;;;12.95;8.65;;;;;;;8.13;100.00;103050.66;5059691;28;20032;-75
2022/11/11 10:00:27;;;;;;;13.18;7.30;;;;;;;8.19;100.00;103058.59;5047581;28;20022;-77
2022/11/11 10:02:55;;;;;;;12.85;7.78;;;;;;;8.15;100.00;103044.66;5060574;28;20028;-78
2022/11/11 10:05:39;;;;;;;11.98;7.47;;;;;;;8.26;100.00;103049.22;5071519;28;20020;-78
2022/11/11 10:08:23;;;;;;;12.60;7.22;;;;;;;8.32;100.00;103046.75;5063872;28;20071;-78
2022/11/11 10:10:49;;;;;;;;;;;;;;;8.40;100.00;103051.31;5062626;28;20033;-80
2022/11/11 10:13:18;;;;;;;12.05;7.00;;;;;;;8.49;100.00;103052.31;5055975;28;20352;-79
2022/11/11 10:16:11;;;;;;;11.85;6.97;;;;;;;8.55;100.00;103055.94;5056366;28;20031;-79
2022/11/11 10:19:10;;;;;;;16.02;7.40;;;;;;;8.62;100.00;103056.94;5049250;28;20094;-79
2022/11/11 10:21:48;;;;;;;13.85;7.07;;;;;;;8.67;100.00;103058.78;5041650;28;20087;-79
2022/11/11 10:24:27;;;;;;;12.82;7.15;;;;;;;8.75;100.00;103056.31;5041662;28;20040;-79
2022/11/11 10:26:52;;;;;;;9.73;6.30;;;;;;;8.81;100.00;103047.78;5044926;28;20021;-79
2022/11/11 10:29:21;;;;;;;13.05;6.80;;;;;;;8.91;100.00;103060.97;5047053;28;20029;-79
2022/11/11 10:31:57;;;;;;;10.57;6.30;;;;;;;9.00;100.00;103060.28;5051965;28;20024;-79
2022/11/11 10:34:27;;;;;;;9.68;6.43;;;;;;;9.10;100.00;103054.38;5031985;28;20033;-78
2022/11/11 10:36:57;;;;;;;11.98;6.70;;;;;;;9.20;100.00;103054.56;5046839;28;20029;-78
2022/11/11 10:39:48;;;;;;;8.07;5.60;;;;;;;9.25;100.00;103040.75;5035508;28;20051;-78
2022/11/11 10:42:17;;;;;;;7.88;5.60;;;;;;;9.37;100.00;103053.97;5047682;28;20029;-78
2022/11/11 10:44:43;;;;;;;8.98;5.28;;;;;;;9.43;100.00;103052.34;5040664;28;20049;-78
2022/11/11 10:47:19;;;;;;;6.57;5.25;;;;;;;9.53;100.00;103052.50;5051487;28;20086;-78
2022/11/11 10:50:02;;;;;;;8.35;5.00;;;;;;;9.60;100.00;103051.75;5035167;28;20040;-79
2022/11/11 10:52:36;;;;;;;7.22;5.40;;;;;;;9.70;100.00;103057.09;5032499;28;20078;-75
2022/11/11 10:55:05;;;;;;;8.75;5.18;;;;;;;9.83;100.00;103057.31;5042914;28;20108;-74
2022/11/11 10:57:38;;;;;;;9.40;5.35;;;;;;;9.93;100.00;103052.25;5052211;28;20025;-74
2022/11/11 11:00:09;;;;;;;7.97;4.93;;;;;;;10.03;100.00;103054.13;5048791;28;20104;-76
2022/11/11 11:02:58;;;;;;;7.57;4.63;;;;;;;10.16;100.00;103052.56;5049716;28;20061;-79
2022/11/11 11:05:41;;;;;;;6.22;4.45;;;;;;;10.18;99.95;103043.91;5034919;28;20034;-76
2022/11/11 11:08:11;;;;;;;6.57;4.47;;;;;;;10.35;99.33;103051.97;5034441;28;20040;-76
2022/11/11 11:10:42;;;;;;;6.00;4.32;;;;;;;10.49;98.17;103044.31;5041040;28;20280;-77
2022/11/11 11:13:26;;;;;;;5.63;3.90;;;;;;;10.57;99.12;103024.44;5040434;28;20017;-77
2022/11/11 11:16:01;;;;;;;7.03;4.40;;;;;;;10.74;97.25;103037.66;5040631;28;20037;-79
2022/11/11 11:18:26;;;;;;;6.20;3.50;;;;;;;10.81;95.57;103036.88;5032126;28;20036;-78
2022/11/11 11:21:01;;;;;;;8.05;4.00;;;;;;;10.89;96.76;103039.53;5038732;28;20095;-77
2022/11/11 11:23:43;;;;;;;5.30;3.58;;;;;;;10.94;95.61;103037.88;5045777;28;20028;-78
2022/11/11 11:26:11;;;;;;;4.78;3.15;;;;;;;10.89;94.03;103024.78;5051016;28;20057;-76
2022/11/11 11:28:57;;;;;;;5.15;3.20;;;;;;;10.97;95.19;103028.31;5050224;28;20029;-77
2022/11/11 11:31:38;;;;;;;4.70;3.10;;;;;;;10.96;94.35;103029.19;5050708;28;20036;-77
2022/11/11 11:34:04;;;;;;;6.22;3.63;;;;;;;10.91;92.75;103017.81;5046021;28;20014;-77
2022/11/11 11:36:29;;;;;;;4.85;2.83;;;;;;;10.97;93.89;103017.03;5031286;28;20117;-77
2022/11/11 11:38:54;;;;;;;5.45;3.00;;;;;;;11.15;93.78;103021.53;5048114;28;20151;-77
2022/11/11 11:41:43;;;;;;;2.75;2.10;;;;;;;11.20;94.60;103018.09;5044073;28;20477;-77
2022/11/11 11:44:36;;;;;;;4.25;2.72;;;;;;;11.35;94.18;103030.41;5044066;28;20028;-77
2022/11/11 11:47:19;;;;;;;3.67;2.40;;;;;;;11.47;93.85;103022.66;5047025;28;20499;-77
2022/11/11 11:50:03;;;;;;;3.28;2.25;;;;;;;11.60;94.22;103023.63;5048915;28;20049;-77
2022/11/11 11:53:07;;;;;;;6.75;2.00;;;;;;;11.74;93.51;103013.28;5050767;28;20025;-77
2022/11/11 11:55:53;;;;;;;3.00;2.17;;;;;;;11.86;89.52;103026.44;4950963;29;20035;-77
2022/11/11 11:58:39;;;;;;;3.45;2.10;;;;;;;11.99;89.20;103021.28;5032061;28;20037;-74
2022/11/11 12:01:36;;;;;;;4.40;1.90;;;;;;;12.12;89.33;103025.72;5033776;28;20032;-74
2022/11/11 12:04:22;;;;;;;3.90;1.77;;;;;;;12.18;86.56;103018.78;5034732;28;20026;-75
2022/11/11 12:07:02;;;;;;;8.15;1.88;;;;;;;12.38;85.26;103018.84;5041317;28;20036;-75
2022/11/11 12:09:34;;;;;;;2.45;1.70;;;;;;;12.43;85.44;103011.03;5039201;28;20029;-74
2022/11/11 12:12:13;;;;;;;2.65;1.60;;;;;;;12.55;84.41;103015.41;5039550;28;20111;-75
2022/11/11 12:14:38;;;;;;;3.97;1.80;;;;;;;12.65;83.22;103010.22;5048559;28;20128;-75
2022/11/11 12:17:25;;;;;;;2.78;1.35;;;;;;;12.70;82.95;102997.16;5035097;28;20108;-75
2022/11/11 12:20:01;;;;;;;3.90;1.50;;;;;;;12.77;83.53;103005.88;5041419;28;20037;-75
2022/11/11 12:22:49;;;;;;;4.07;1.70;;;;;;;12.69;83.64;103000.66;5039391;28;20041;-74
2022/11/11 12:25:21;;;;;;;2.83;1.40;;;;;;;12.50;83.30;102996.22;5051764;28;20061;-75
2022/11/11 12:28:00;;;;;;;2.42;1.65;;;;;;;12.49;85.63;103002.31;5045176;28;20471;-75
2022/11/11 12:30:29;;;;;;;2.13;1.50;;;;;;;12.39;82.62;102994.47;5040972;28;20044;-75
2022/11/11 12:33:12;;;;;;;2.95;1.33;;;;;;;12.32;82.11;102995.28;5045417;28;20462;-74